sensor_id;sensor_type;location;lat;lon;timestamp;pressure;altitude;pressure_sealevel;temperature;humidity
55044;BME280;54902;50.420;18.854;2022-09-16T00:00:12;100677.87;;;14.66;80.94
55044;BME280;54902;50.420;18.854;2022-09-16T00:00:28;100684.95;;;14.68;81.22
55044;BME280;54902;50.420;18.854;2022-09-16T00:00:45;100684.06;;;14.68;81.24
55044;BME280;54902;50.420;18.854;2022-09-16T00:01:10;100681.30;;;14.68;81.22
55044;BME280;54902;50.420;18.854;2022-09-16T00:01:26;100685.13;;;14.67;81.21
55044;BME280;54902;50.420;18.854;2022-09-16T00:01:42;100686.82;;;14.68;81.16
55044;BME280;54902;50.420;18.854;2022-09-16T00:01:59;100680.45;;;14.67;81.41
55044;BME280;54902;50.420;18.854;2022-09-16T00:02:15;100683.22;;;14.67;81.17
55044;BME280;54902;50.420;18.854;2022-09-16T00:02:30;100683.22;;;14.67;81.19
55044;BME280;54902;50.420;18.854;2022-09-16T00:02:47;100684.23;;;14.66;81.26
55044;BME280;54902;50.420;18.854;2022-09-16T00:03:03;100689.41;;;14.69;81.30
55044;BME280;54902;50.420;18.854;2022-09-16T00:03:19;100689.59;;;14.68;81.32
55044;BME280;54902;50.420;18.854;2022-09-16T00:03:35;100689.59;;;14.68;81.18
55044;BME280;54902;50.420;18.854;2022-09-16T00:03:55;100683.89;;;14.69;81.06
55044;BME280;54902;50.420;18.854;2022-09-16T00:04:11;100693.23;;;14.68;81.41
55044;BME280;54902;50.420;18.854;2022-09-16T00:04:27;100687.71;;;14.68;81.11
55044;BME280;54902;50.420;18.854;2022-09-16T00:04:43;100688.55;;;14.69;81.32
55044;BME280;54902;50.420;18.854;2022-09-16T00:04:59;100689.76;;;14.66;81.34
55044;BME280;54902;50.420;18.854;2022-09-16T00:05:15;100690.65;;;14.67;81.25
55044;BME280;54902;50.420;18.854;2022-09-16T00:05:31;100688.74;;;14.67;81.18
55044;BME280;54902;50.420;18.854;2022-09-16T00:05:49;100684.23;;;14.66;81.18
55044;BME280;54902;50.420;18.854;2022-09-16T00:06:06;100698.92;;;14.67;81.36
55044;BME280;54902;50.420;18.854;2022-09-16T00:06:27;100685.80;;;14.69;81.18
55044;BME280;54902;50.420;18.854;2022-09-16T00:06:43;100687.01;;;14.66;81.15
55044;BME280;54902;50.420;18.854;2022-09-16T00:06:59;100682.20;;;14.68;81.27
55044;BME280;54902;50.420;18.854;2022-09-16T00:07:16;100693.23;;;14.68;81.31
55044;BME280;54902;50.420;18.854;2022-09-16T00:07:32;100702.53;;;14.67;81.37
55044;BME280;54902;50.420;18.854;2022-09-16T00:07:48;100684.23;;;14.66;81.38
55044;BME280;54902;50.420;18.854;2022-09-16T00:08:04;100688.74;;;14.67;81.32
55044;BME280;54902;50.420;18.854;2022-09-16T00:08:20;100688.55;;;14.69;81.22
55044;BME280;54902;50.420;18.854;2022-09-16T00:08:37;100685.13;;;14.67;81.22
55044;BME280;54902;50.420;18.854;2022-09-16T00:08:56;100685.98;;;14.67;81.24
55044;BME280;54902;50.420;18.854;2022-09-16T00:09:15;100684.95;;;14.68;81.28
55044;BME280;54902;50.420;18.854;2022-09-16T00:09:31;100689.59;;;14.68;81.42
55044;BME280;54902;50.420;18.854;2022-09-16T00:09:47;100684.95;;;14.68;81.29
55044;BME280;54902;50.420;18.854;2022-09-16T00:10:04;100694.94;;;14.69;81.09
55044;BME280;54902;50.420;18.854;2022-09-16T00:10:21;100697.70;;;14.69;81.35
55044;BME280;54902;50.420;18.854;2022-09-16T00:10:37;100697.01;;;14.67;81.42
55044;BME280;54902;50.420;18.854;2022-09-16T00:10:59;100694.94;;;14.69;81.40
55044;BME280;54902;50.420;18.854;2022-09-16T00:11:17;100698.59;;;14.70;81.37
55044;BME280;54902;50.420;18.854;2022-09-16T00:11:33;100693.23;;;14.68;81.33
55044;BME280;54902;50.420;18.854;2022-09-16T00:11:49;100697.56;;;14.71;81.32
55044;BME280;54902;50.420;18.854;2022-09-16T00:12:06;100687.71;;;14.68;81.31
55044;BME280;54902;50.420;18.854;2022-09-16T00:12:22;100693.23;;;14.68;81.32
55044;BME280;54902;50.420;18.854;2022-09-16T00:12:39;100691.49;;;14.67;81.31
55044;BME280;54902;50.420;18.854;2022-09-16T00:12:55;100698.59;;;14.70;81.40
55044;BME280;54902;50.420;18.854;2022-09-16T00:13:12;100699.43;;;14.70;81.30
55044;BME280;54902;50.420;18.854;2022-09-16T00:13:28;100698.76;;;14.68;81.17
55044;BME280;54902;50.420;18.854;2022-09-16T00:13:44;100688.55;;;14.69;81.19
55044;BME280;54902;50.420;18.854;2022-09-16T00:14:01;100702.19;;;14.70;81.14
55044;BME280;54902;50.420;18.854;2022-09-16T00:14:17;100704.78;;;14.72;81.11
55044;BME280;54902;50.420;18.854;2022-09-16T00:14:33;100693.92;;;14.70;81.27
55044;BME280;54902;50.420;18.854;2022-09-16T00:14:51;100697.70;;;14.69;81.28
55044;BME280;54902;50.420;18.854;2022-09-16T00:15:08;100698.59;;;14.70;81.30
55044;BME280;54902;50.420;18.854;2022-09-16T00:15:24;100698.41;;;14.71;81.31
55044;BME280;54902;50.420;18.854;2022-09-16T00:15:47;100700.46;;;14.69;81.18
55044;BME280;54902;50.420;18.854;2022-09-16T00:16:12;100702.19;;;14.70;81.22
55044;BME280;54902;50.420;18.854;2022-09-16T00:16:30;100697.87;;;14.68;81.48
55044;BME280;54902;50.420;18.854;2022-09-16T00:16:46;100703.38;;;14.68;81.51
55044;BME280;54902;50.420;18.854;2022-09-16T00:17:02;100704.95;;;14.70;81.21
55044;BME280;54902;50.420;18.854;2022-09-16T00:17:19;100692.34;;;14.68;81.17
55044;BME280;54902;50.420;18.854;2022-09-16T00:17:40;100708.05;;;14.67;81.37
55044;BME280;54902;50.420;18.854;2022-09-16T00:17:56;100702.36;;;14.69;81.34
55044;BME280;54902;50.420;18.854;2022-09-16T00:18:12;100700.46;;;14.69;81.14
55044;BME280;54902;50.420;18.854;2022-09-16T00:18:29;100700.46;;;14.69;81.29
55044;BME280;54902;50.420;18.854;2022-09-16T00:18:45;100695.99;;;14.68;81.11
55044;BME280;54902;50.420;18.854;2022-09-16T00:19:01;100693.23;;;14.68;81.26
55044;BME280;54902;50.420;18.854;2022-09-16T00:19:18;100703.38;;;14.68;81.19
55044;BME280;54902;50.420;18.854;2022-09-16T00:19:34;100692.17;;;14.69;81.22
55044;BME280;54902;50.420;18.854;2022-09-16T00:19:50;100694.94;;;14.69;81.18
55044;BME280;54902;50.420;18.854;2022-09-16T00:20:07;100701.52;;;14.68;81.31
55044;BME280;54902;50.420;18.854;2022-09-16T00:20:23;100697.20;;;14.66;81.16
55044;BME280;54902;50.420;18.854;2022-09-16T00:20:49;100705.30;;;14.67;81.32
55044;BME280;54902;50.420;18.854;2022-09-16T00:21:09;100695.10;;;14.68;81.43
55044;BME280;54902;50.420;18.854;2022-09-16T00:21:26;100696.16;;;14.67;81.32
55044;BME280;54902;50.420;18.854;2022-09-16T00:21:42;100699.78;;;14.67;81.34
55044;BME280;54902;50.420;18.854;2022-09-16T00:21:58;100698.03;;;14.66;81.16
55044;BME280;54902;50.420;18.854;2022-09-16T00:22:14;100698.76;;;14.68;81.08
55044;BME280;54902;50.420;18.854;2022-09-16T00:22:30;100695.99;;;14.68;81.07
55044;BME280;54902;50.420;18.854;2022-09-16T00:22:46;100698.03;;;14.66;81.30
55044;BME280;54902;50.420;18.854;2022-09-16T00:23:02;100693.23;;;14.68;81.25
55044;BME280;54902;50.420;18.854;2022-09-16T00:23:18;100691.49;;;14.67;81.11
55044;BME280;54902;50.420;18.854;2022-09-16T00:23:35;100693.40;;;14.67;81.21
55044;BME280;54902;50.420;18.854;2022-09-16T00:23:51;100697.87;;;14.68;81.25
55044;BME280;54902;50.420;18.854;2022-09-16T00:24:09;100698.76;;;14.68;81.15
55044;BME280;54902;50.420;18.854;2022-09-16T00:24:30;100696.16;;;14.67;81.04
55044;BME280;54902;50.420;18.854;2022-09-16T00:24:47;100704.27;;;14.68;81.09
55044;BME280;54902;50.420;18.854;2022-09-16T00:25:03;100691.84;;;14.64;81.14
55044;BME280;54902;50.420;18.854;2022-09-16T00:25:19;100706.15;;;14.68;81.10
55044;BME280;54902;50.420;18.854;2022-09-16T00:25:35;100721.52;;;14.70;81.20
55044;BME280;54902;50.420;18.854;2022-09-16T00:25:54;100701.52;;;14.68;81.13
55044;BME280;54902;50.420;18.854;2022-09-16T00:26:10;100703.55;;;14.66;81.10
55044;BME280;54902;50.420;18.854;2022-09-16T00:26:26;100695.10;;;14.68;81.26
55044;BME280;54902;50.420;18.854;2022-09-16T00:26:44;100700.80;;;14.66;81.16
55044;BME280;54902;50.420;18.854;2022-09-16T00:27:00;100715.31;;;14.68;81.26
55044;BME280;54902;50.420;18.854;2022-09-16T00:27:15;100697.01;;;14.67;81.06
55044;BME280;54902;50.420;18.854;2022-09-16T00:27:31;100706.32;;;14.66;81.13
55044;BME280;54902;50.420;18.854;2022-09-16T00:27:47;100706.32;;;14.66;81.23
55044;BME280;54902;50.420;18.854;2022-09-16T00:28:04;100698.03;;;14.66;81.27
55044;BME280;54902;50.420;18.854;2022-09-16T00:28:21;100702.53;;;14.67;81.05
55044;BME280;54902;50.420;18.854;2022-09-16T00:28:37;100699.06;;;14.65;81.43
55044;BME280;54902;50.420;18.854;2022-09-16T00:28:53;100708.05;;;14.67;81.15
55044;BME280;54902;50.420;18.854;2022-09-16T00:29:09;100699.06;;;14.65;81.11
55044;BME280;54902;50.420;18.854;2022-09-16T00:29:25;100709.97;;;14.67;81.22
55044;BME280;54902;50.420;18.854;2022-09-16T00:29:41;100707.21;;;14.67;81.09
55044;BME280;54902;50.420;18.854;2022-09-16T00:29:57;100711.33;;;14.63;81.32
55044;BME280;54902;50.420;18.854;2022-09-16T00:30:13;100713.74;;;14.66;81.30
55044;BME280;54902;50.420;18.854;2022-09-16T00:30:30;100699.06;;;14.65;81.25
55044;BME280;54902;50.420;18.854;2022-09-16T00:30:46;100703.73;;;14.65;81.20
55044;BME280;54902;50.420;18.854;2022-09-16T00:31:04;100713.91;;;14.64;81.27
55044;BME280;54902;50.420;18.854;2022-09-16T00:31:20;100703.73;;;14.65;81.30
55044;BME280;54902;50.420;18.854;2022-09-16T00:31:36;100706.32;;;14.66;81.13
55044;BME280;54902;50.420;18.854;2022-09-16T00:31:52;100702.88;;;14.64;81.27
55044;BME280;54902;50.420;18.854;2022-09-16T00:32:08;100708.40;;;14.64;81.33
55044;BME280;54902;50.420;18.854;2022-09-16T00:32:23;100709.41;;;14.63;81.25
55044;BME280;54902;50.420;18.854;2022-09-16T00:32:39;100701.82;;;14.65;81.12
55044;BME280;54902;50.420;18.854;2022-09-16T00:32:55;100712.86;;;14.65;81.19
55044;BME280;54902;50.420;18.854;2022-09-16T00:33:11;100693.54;;;14.65;81.12
55044;BME280;54902;50.420;18.854;2022-09-16T00:33:27;100704.59;;;14.65;81.26
55044;BME280;54902;50.420;18.854;2022-09-16T00:33:43;100702.70;;;14.66;81.32
55044;BME280;54902;50.420;18.854;2022-09-16T00:33:59;100702.88;;;14.64;81.13
55044;BME280;54902;50.420;18.854;2022-09-16T00:34:15;100707.34;;;14.65;81.08
55044;BME280;54902;50.420;18.854;2022-09-16T00:34:31;100697.35;;;14.64;81.31
55044;BME280;54902;50.420;18.854;2022-09-16T00:34:47;100704.59;;;14.65;81.36
55044;BME280;54902;50.420;18.854;2022-09-16T00:35:03;100700.80;;;14.66;81.25
55044;BME280;54902;50.420;18.854;2022-09-16T00:35:19;100712.86;;;14.65;80.98
55044;BME280;54902;50.420;18.854;2022-09-16T00:35:37;100707.34;;;14.65;81.12
55044;BME280;54902;50.420;18.854;2022-09-16T00:36:20;100701.14;;;14.63;81.09
55044;BME280;54902;50.420;18.854;2022-09-16T00:36:36;100702.88;;;14.64;81.23
55044;BME280;54902;50.420;18.854;2022-09-16T00:36:52;100699.06;;;14.65;81.00
55044;BME280;54902;50.420;18.854;2022-09-16T00:37:08;100699.23;;;14.64;81.03
55044;BME280;54902;50.420;18.854;2022-09-16T00:37:24;100698.21;;;14.65;81.35
55044;BME280;54902;50.420;18.854;2022-09-16T00:37:41;100704.76;;;14.64;81.52
55044;BME280;54902;50.420;18.854;2022-09-16T00:37:57;100700.11;;;14.64;81.18
55044;BME280;54902;50.420;18.854;2022-09-16T00:38:13;100704.45;;;14.67;81.24
55044;BME280;54902;50.420;18.854;2022-09-16T00:38:29;100697.35;;;14.64;81.15
55044;BME280;54902;50.420;18.854;2022-09-16T00:38:49;100701.14;;;14.63;81.30
55044;BME280;54902;50.420;18.854;2022-09-16T00:39:06;100705.80;;;14.63;81.26
55044;BME280;54902;50.420;18.854;2022-09-16T00:39:22;100703.89;;;14.63;81.07
55044;BME280;54902;50.420;18.854;2022-09-16T00:39:38;100705.65;;;14.64;80.95
55044;BME280;54902;50.420;18.854;2022-09-16T00:39:54;100702.70;;;14.66;81.25
55044;BME280;54902;50.420;18.854;2022-09-16T00:40:10;100709.41;;;14.63;81.19
55044;BME280;54902;50.420;18.854;2022-09-16T00:40:26;100700.11;;;14.64;81.05
55044;BME280;54902;50.420;18.854;2022-09-16T00:40:48;100702.88;;;14.64;81.28
55044;BME280;54902;50.420;18.854;2022-09-16T00:41:05;100708.70;;;14.61;81.10
55044;BME280;54902;50.420;18.854;2022-09-16T00:41:27;100712.18;;;14.63;81.25
55044;BME280;54902;50.420;18.854;2022-09-16T00:41:47;100714.23;;;14.61;81.11
55044;BME280;54902;50.420;18.854;2022-09-16T00:42:04;100708.70;;;14.61;81.15
55044;BME280;54902;50.420;18.854;2022-09-16T00:42:20;100706.11;;;14.60;81.24
55044;BME280;54902;50.420;18.854;2022-09-16T00:42:40;100718.04;;;14.60;81.37
55044;BME280;54902;50.420;18.854;2022-09-16T00:42:56;100720.63;;;14.62;81.08
55044;BME280;54902;50.420;18.854;2022-09-16T00:43:16;100718.72;;;14.62;81.17
55044;BME280;54902;50.420;18.854;2022-09-16T00:44:04;100712.52;;;14.60;81.12
55044;BME280;54902;50.420;18.854;2022-09-16T00:44:58;100712.52;;;14.60;81.13
55044;BME280;54902;50.420;18.854;2022-09-16T00:45:20;100713.54;;;14.59;81.24
55044;BME280;54902;50.420;18.854;2022-09-16T00:45:37;100722.50;;;14.61;81.21
55044;BME280;54902;50.420;18.854;2022-09-16T00:46:01;100713.21;;;14.62;81.09
55044;BME280;54902;50.420;18.854;2022-09-16T00:46:23;100713.37;;;14.61;81.32
55044;BME280;54902;50.420;18.854;2022-09-16T00:46:44;100708.02;;;14.59;81.23
55044;BME280;54902;50.420;18.854;2022-09-16T00:47:01;100718.04;;;14.60;81.17
55044;BME280;54902;50.420;18.854;2022-09-16T00:47:36;100712.66;;;14.59;81.11
55044;BME280;54902;50.420;18.854;2022-09-16T00:48:11;100719.06;;;14.59;81.19
55044;BME280;54902;50.420;18.854;2022-09-16T00:48:20;100714.57;;;14.58;81.09
55044;BME280;54902;50.420;18.854;2022-09-16T00:48:37;100714.57;;;14.58;81.20
55044;BME280;54902;50.420;18.854;2022-09-16T00:48:56;100715.41;;;14.59;81.23
55044;BME280;54902;50.420;18.854;2022-09-16T00:49:22;100709.89;;;14.59;81.08
55044;BME280;54902;50.420;18.854;2022-09-16T00:49:39;100721.82;;;14.59;81.19
55044;BME280;54902;50.420;18.854;2022-09-16T00:49:59;100714.57;;;14.58;81.03
55044;BME280;54902;50.420;18.854;2022-09-16T00:50:49;100714.57;;;14.58;81.16
55044;BME280;54902;50.420;18.854;2022-09-16T00:51:08;100710.06;;;14.57;81.21
55044;BME280;54902;50.420;18.854;2022-09-16T00:51:27;100719.23;;;14.58;81.18
55044;BME280;54902;50.420;18.854;2022-09-16T00:51:45;100718.34;;;14.57;81.27
55044;BME280;54902;50.420;18.854;2022-09-16T00:52:04;100719.23;;;14.58;81.15
55044;BME280;54902;50.420;18.854;2022-09-16T00:52:21;100720.09;;;14.58;81.19
55044;BME280;54902;50.420;18.854;2022-09-16T00:52:39;100715.59;;;14.57;81.18
55044;BME280;54902;50.420;18.854;2022-09-16T00:52:57;100720.09;;;14.58;81.37
55044;BME280;54902;50.420;18.854;2022-09-16T00:53:19;100715.75;;;14.56;81.02
55044;BME280;54902;50.420;18.854;2022-09-16T00:53:40;100717.50;;;14.57;81.03
55044;BME280;54902;50.420;18.854;2022-09-16T00:54:00;100710.06;;;14.57;81.20
55044;BME280;54902;50.420;18.854;2022-09-16T00:54:18;100712.82;;;14.57;81.09
55044;BME280;54902;50.420;18.854;2022-09-16T00:54:37;100713.88;;;14.56;81.23
55044;BME280;54902;50.420;18.854;2022-09-16T00:54:54;100712.82;;;14.57;81.25
55044;BME280;54902;50.420;18.854;2022-09-16T00:55:14;100705.59;;;14.56;81.11
55044;BME280;54902;50.420;18.854;2022-09-16T00:55:35;100715.59;;;14.57;81.20
55044;BME280;54902;50.420;18.854;2022-09-16T00:55:54;100715.59;;;14.57;81.29
55044;BME280;54902;50.420;18.854;2022-09-16T00:56:12;100705.59;;;14.56;81.08
55044;BME280;54902;50.420;18.854;2022-09-16T00:56:38;100711.98;;;14.57;81.05
55044;BME280;54902;50.420;18.854;2022-09-16T00:56:57;100708.19;;;14.58;81.18
55044;BME280;54902;50.420;18.854;2022-09-16T00:57:15;100701.96;;;14.56;81.19
55044;BME280;54902;50.420;18.854;2022-09-16T00:57:31;100708.36;;;14.56;81.13
55044;BME280;54902;50.420;18.854;2022-09-16T00:57:49;100709.05;;;14.58;81.39
55044;BME280;54902;50.420;18.854;2022-09-16T00:58:16;100704.72;;;14.56;81.14
55044;BME280;54902;50.420;18.854;2022-09-16T00:58:57;100713.16;;;14.54;81.29
55044;BME280;54902;50.420;18.854;2022-09-16T00:59:13;100705.73;;;14.55;81.19
55044;BME280;54902;50.420;18.854;2022-09-16T00:59:36;100702.98;;;14.55;81.35
55044;BME280;54902;50.420;18.854;2022-09-16T00:59:54;100706.63;;;14.55;81.36
55044;BME280;54902;50.420;18.854;2022-09-16T01:00:11;100696.61;;;14.54;81.16
55044;BME280;54902;50.420;18.854;2022-09-16T01:00:28;100704.72;;;14.56;81.16
55044;BME280;54902;50.420;18.854;2022-09-16T01:00:44;100708.36;;;14.56;81.49
55044;BME280;54902;50.420;18.854;2022-09-16T01:01:02;100712.15;;;14.55;81.24
55044;BME280;54902;50.420;18.854;2022-09-16T01:01:20;100702.98;;;14.55;81.11
55044;BME280;54902;50.420;18.854;2022-09-16T01:01:37;100710.23;;;14.56;81.14
55044;BME280;54902;50.420;18.854;2022-09-16T01:01:54;100711.12;;;14.56;81.20
55044;BME280;54902;50.420;18.854;2022-09-16T01:02:16;100710.95;;;14.58;81.18
55044;BME280;54902;50.420;18.854;2022-09-16T01:02:33;100709.38;;;14.55;81.12
55044;BME280;54902;50.420;18.854;2022-09-16T01:02:50;100703.87;;;14.55;81.13
55044;BME280;54902;50.420;18.854;2022-09-16T01:03:06;100715.59;;;14.57;81.16
55044;BME280;54902;50.420;18.854;2022-09-16T01:03:22;100705.59;;;14.56;81.17
55044;BME280;54902;50.420;18.854;2022-09-16T01:03:48;100712.82;;;14.57;81.03
55044;BME280;54902;50.420;18.854;2022-09-16T01:04:11;100709.38;;;14.55;81.10
55044;BME280;54902;50.420;18.854;2022-09-16T01:04:32;100707.66;;;14.54;81.14
55044;BME280;54902;50.420;18.854;2022-09-16T01:05:20;100713.88;;;14.56;81.23
55044;BME280;54902;50.420;18.854;2022-09-16T01:05:37;100711.26;;;14.55;81.10
55044;BME280;54902;50.420;18.854;2022-09-16T01:05:53;100707.66;;;14.54;81.16
55044;BME280;54902;50.420;18.854;2022-09-16T01:06:10;100709.38;;;14.55;81.18
55044;BME280;54902;50.420;18.854;2022-09-16T01:06:30;100709.22;;;14.57;81.05
55044;BME280;54902;50.420;18.854;2022-09-16T01:06:47;100707.66;;;14.54;81.08
55044;BME280;54902;50.420;18.854;2022-09-16T01:07:04;100712.15;;;14.55;81.01
55044;BME280;54902;50.420;18.854;2022-09-16T01:07:29;100708.50;;;14.55;81.21
55044;BME280;54902;50.420;18.854;2022-09-16T01:07:50;100702.13;;;14.54;81.04
55044;BME280;54902;50.420;18.854;2022-09-16T01:08:07;100702.13;;;14.54;81.04
55044;BME280;54902;50.420;18.854;2022-09-16T01:08:23;100705.91;;;14.53;81.10
55044;BME280;54902;50.420;18.854;2022-09-16T01:08:41;100702.13;;;14.54;81.35
55044;BME280;54902;50.420;18.854;2022-09-16T01:08:58;100705.06;;;14.53;81.05
55044;BME280;54902;50.420;18.854;2022-09-16T01:09:21;100710.41;;;14.54;81.19
55044;BME280;54902;50.420;18.854;2022-09-16T01:09:38;100705.91;;;14.53;81.21
55044;BME280;54902;50.420;18.854;2022-09-16T01:09:54;100709.38;;;14.55;81.20
55044;BME280;54902;50.420;18.854;2022-09-16T01:10:13;100705.91;;;14.53;81.13
55044;BME280;54902;50.420;18.854;2022-09-16T01:10:30;100707.81;;;14.53;80.99
55044;BME280;54902;50.420;18.854;2022-09-16T01:10:46;100712.32;;;14.54;81.07
55044;BME280;54902;50.420;18.854;2022-09-16T01:11:02;100707.66;;;14.54;81.07
55044;BME280;54902;50.420;18.854;2022-09-16T01:11:18;100704.03;;;14.54;81.20
55044;BME280;54902;50.420;18.854;2022-09-16T01:11:34;100707.66;;;14.54;81.14
55044;BME280;54902;50.420;18.854;2022-09-16T01:11:50;100713.16;;;14.54;81.30
55044;BME280;54902;50.420;18.854;2022-09-16T01:12:06;100707.81;;;14.53;81.11
55044;BME280;54902;50.420;18.854;2022-09-16T01:12:22;100710.59;;;14.53;81.27
55044;BME280;54902;50.420;18.854;2022-09-16T01:12:41;100718.68;;;14.54;80.97
55044;BME280;54902;50.420;18.854;2022-09-16T01:13:04;100709.73;;;14.53;81.16
55044;BME280;54902;50.420;18.854;2022-09-16T01:13:21;100716.09;;;14.53;81.14
55044;BME280;54902;50.420;18.854;2022-09-16T01:13:38;100707.81;;;14.53;81.13
55044;BME280;54902;50.420;18.854;2022-09-16T01:13:56;100710.59;;;14.53;81.08
55044;BME280;54902;50.420;18.854;2022-09-16T01:14:25;100697.59;;;14.46;81.09
55044;BME280;54902;50.420;18.854;2022-09-16T01:14:55;100706.96;;;14.53;81.11
55044;BME280;54902;50.420;18.854;2022-09-16T01:15:14;100706.24;;;14.51;81.14
55044;BME280;54902;50.420;18.854;2022-09-16T01:16:35;100692.45;;;14.51;81.09
55044;BME280;54902;50.420;18.854;2022-09-16T01:18:25;100702.80;;;14.49;81.05
55044;BME280;54902;50.420;18.854;2022-09-16T01:19:50;100704.51;;;14.50;81.24
55044;BME280;54902;50.420;18.854;2022-09-16T01:20:47;100708.33;;;14.49;81.10
55044;BME280;54902;50.420;18.854;2022-09-16T01:21:47;100704.85;;;14.47;81.10
55044;BME280;54902;50.420;18.854;2022-09-16T01:22:28;100712.10;;;14.48;81.33
55044;BME280;54902;50.420;18.854;2022-09-16T01:23:10;100718.65;;;14.47;81.25
55044;BME280;54902;50.420;18.854;2022-09-16T01:25:05;100722.43;;;14.46;81.20
55044;BME280;54902;50.420;18.854;2022-09-16T01:29:49;100713.77;;;14.41;81.33
55044;BME280;54902;50.420;18.854;2022-09-16T01:32:06;100709.61;;;14.37;81.18
55044;BME280;54902;50.420;18.854;2022-09-16T01:32:38;100712.91;;;14.40;81.23
55044;BME280;54902;50.420;18.854;2022-09-16T01:33:02;100707.57;;;14.39;81.08
55044;BME280;54902;50.420;18.854;2022-09-16T01:33:30;100706.38;;;14.41;81.22
55044;BME280;54902;50.420;18.854;2022-09-16T01:34:21;100703.07;;;14.38;81.20
55044;BME280;54902;50.420;18.854;2022-09-16T01:34:49;100713.09;;;14.39;81.30
55044;BME280;54902;50.420;18.854;2022-09-16T01:39:04;100713.73;;;14.33;81.05
55044;BME280;54902;50.420;18.854;2022-09-16T01:39:28;100712.70;;;14.34;81.13
55044;BME280;54902;50.420;18.854;2022-09-16T01:40:26;100707.52;;;14.31;81.17
55044;BME280;54902;50.420;18.854;2022-09-16T01:40:51;100707.70;;;14.29;81.21
55044;BME280;54902;50.420;18.854;2022-09-16T01:42:41;100708.54;;;14.30;81.27
55044;BME280;54902;50.420;18.854;2022-09-16T01:43:17;100705.79;;;14.30;81.16
55044;BME280;54902;50.420;18.854;2022-09-16T01:44:34;100710.45;;;14.29;81.16
55044;BME280;54902;50.420;18.854;2022-09-16T01:46:23;100713.38;;;14.28;81.26
55044;BME280;54902;50.420;18.854;2022-09-16T01:46:53;100714.41;;;14.27;81.19
55044;BME280;54902;50.420;18.854;2022-09-16T01:48:16;100715.59;;;14.24;81.37
55044;BME280;54902;50.420;18.854;2022-09-16T01:48:42;100711.98;;;14.24;81.10
55044;BME280;54902;50.420;18.854;2022-09-16T01:49:12;100710.07;;;14.24;81.29
55044;BME280;54902;50.420;18.854;2022-09-16T01:50:15;100705.40;;;14.25;81.16
55044;BME280;54902;50.420;18.854;2022-09-16T01:50:31;100709.22;;;14.24;81.28
55044;BME280;54902;50.420;18.854;2022-09-16T01:51:54;100711.26;;;14.22;81.27
55044;BME280;54902;50.420;18.854;2022-09-16T01:52:20;100712.99;;;14.23;81.28
55044;BME280;54902;50.420;18.854;2022-09-16T01:53:13;100714.02;;;14.22;81.14
55044;BME280;54902;50.420;18.854;2022-09-16T01:53:35;100714.73;;;14.24;81.22
55044;BME280;54902;50.420;18.854;2022-09-16T01:54:28;100705.73;;;14.22;81.25
55044;BME280;54902;50.420;18.854;2022-09-16T01:54:54;100714.88;;;14.22;81.16
55044;BME280;54902;50.420;18.854;2022-09-16T01:55:19;100712.99;;;14.23;81.17
55044;BME280;54902;50.420;18.854;2022-09-16T01:56:15;100723.14;;;14.22;81.08
55044;BME280;54902;50.420;18.854;2022-09-16T01:57:07;100727.81;;;14.22;81.21
55044;BME280;54902;50.420;18.854;2022-09-16T01:57:59;100726.95;;;14.21;81.13
55044;BME280;54902;50.420;18.854;2022-09-16T01:58:26;100720.55;;;14.21;81.17
55044;BME280;54902;50.420;18.854;2022-09-16T01:59:18;100720.55;;;14.21;81.17
55044;BME280;54902;50.420;18.854;2022-09-16T02:00:00;100715.03;;;14.21;81.13
55044;BME280;54902;50.420;18.854;2022-09-16T02:00:09;100727.81;;;14.22;81.14
55044;BME280;54902;50.420;18.854;2022-09-16T02:00:28;100723.48;;;14.19;81.14
55044;BME280;54902;50.420;18.854;2022-09-16T02:00:47;100715.03;;;14.21;81.32
55044;BME280;54902;50.420;18.854;2022-09-16T02:01:11;100720.88;;;14.18;81.18
55044;BME280;54902;50.420;18.854;2022-09-16T02:01:34;100721.74;;;14.18;81.04
55044;BME280;54902;50.420;18.854;2022-09-16T02:02:00;100723.48;;;14.19;81.23
55044;BME280;54902;50.420;18.854;2022-09-16T02:02:27;100718.98;;;14.18;80.99
55044;BME280;54902;50.420;18.854;2022-09-16T02:02:57;100719.86;;;14.19;81.01
55044;BME280;54902;50.420;18.854;2022-09-16T02:03:20;100712.60;;;14.18;81.09
55044;BME280;54902;50.420;18.854;2022-09-16T02:03:41;100717.11;;;14.19;81.25
55044;BME280;54902;50.420;18.854;2022-09-16T02:04:03;100717.11;;;14.19;81.15
55044;BME280;54902;50.420;18.854;2022-09-16T02:04:35;100719.86;;;14.19;81.14
55044;BME280;54902;50.420;18.854;2022-09-16T02:04:53;100716.39;;;14.17;81.09
55044;BME280;54902;50.420;18.854;2022-09-16T02:05:17;100721.05;;;14.16;81.16
55044;BME280;54902;50.420;18.854;2022-09-16T02:05:49;100731.07;;;14.17;81.34
55044;BME280;54902;50.420;18.854;2022-09-16T02:06:08;100721.90;;;14.17;81.45
55044;BME280;54902;50.420;18.854;2022-09-16T02:06:27;100724.66;;;14.17;81.02
55044;BME280;54902;50.420;18.854;2022-09-16T02:06:45;100722.92;;;14.16;81.02
55044;BME280;54902;50.420;18.854;2022-09-16T02:07:06;100728.14;;;14.19;81.08
55044;BME280;54902;50.420;18.854;2022-09-16T02:07:27;100726.41;;;14.18;80.97
55044;BME280;54902;50.420;18.854;2022-09-16T02:07:50;100722.79;;;14.17;81.14
55044;BME280;54902;50.420;18.854;2022-09-16T02:08:12;100724.66;;;14.17;81.10
55044;BME280;54902;50.420;18.854;2022-09-16T02:09:03;100726.57;;;14.16;81.05
55044;BME280;54902;50.420;18.854;2022-09-16T02:09:26;100724.99;;;14.14;81.34